createdAt,value
2022-08-31T00:00:45.689Z,14.32
2022-08-31T00:02:05.586Z,16.20
2022-08-31T00:03:26.924Z,13.32
2022-08-31T00:04:29.958Z,14.57
2022-08-31T00:05:31.582Z,17.40
2022-08-31T00:06:35.756Z,15.73
2022-08-31T00:07:38.181Z,16.17
2022-08-31T00:08:42.041Z,14.93
2022-08-31T00:09:43.635Z,14.80
2022-08-31T00:10:47.290Z,16.33
2022-08-31T00:11:49.087Z,18.98
2022-08-31T00:12:50.828Z,14.07
2022-08-31T00:14:01.566Z,17.02
2022-08-31T00:15:05.654Z,16.23
2022-08-31T00:16:08.905Z,13.40
2022-08-31T00:17:10.699Z,15.43
2022-08-31T00:18:12.398Z,14.00
2022-08-31T00:19:14.077Z,15.73
2022-08-31T00:20:18.035Z,13.65
2022-08-31T00:21:34.686Z,14.40
2022-08-31T00:22:36.581Z,13.43
2022-08-31T00:23:38.237Z,14.52
2022-08-31T00:24:39.899Z,14.85
2022-08-31T00:25:44.784Z,14.07
2022-08-31T00:26:46.531Z,14.15
2022-08-31T00:27:48.163Z,12.73
2022-08-31T00:28:50.693Z,13.65
2022-08-31T00:29:52.265Z,14.80
2022-08-31T00:30:53.928Z,12.65
2022-08-31T00:31:55.589Z,12.63
2022-08-31T00:32:58.172Z,18.25
2022-08-31T00:34:00.255Z,14.70
2022-08-31T00:35:01.902Z,13.95
2022-08-31T00:36:05.660Z,12.93
2022-08-31T00:37:07.276Z,16.27
2022-08-31T00:38:10.247Z,14.30
2022-08-31T00:39:11.825Z,16.15
2022-08-31T00:40:13.787Z,12.80
2022-08-31T00:41:17.261Z,15.77
2022-08-31T00:42:18.936Z,14.20
2022-08-31T00:43:48.565Z,15.20
2022-08-31T00:44:50.921Z,14.07
2022-08-31T00:45:52.595Z,15.25
2022-08-31T00:46:54.196Z,15.63
2022-08-31T00:47:56.378Z,14.60
2022-08-31T00:49:20.912Z,12.68
2022-08-31T00:50:25.712Z,12.38
2022-08-31T00:51:29.915Z,13.48
2022-08-31T00:52:37.628Z,13.90
2022-08-31T00:53:39.973Z,16.15
2022-08-31T00:54:46.803Z,15.70
2022-08-31T00:55:48.571Z,15.63
2022-08-31T00:56:50.701Z,17.35
2022-08-31T00:57:55.717Z,14.70
2022-08-31T00:59:00.060Z,12.85
2022-08-31T01:00:05.361Z,12.82
2022-08-31T01:01:09.007Z,17.27
2022-08-31T01:02:11.005Z,13.75
2022-08-31T01:03:12.733Z,15.15
2022-08-31T01:04:15.017Z,15.23
2022-08-31T01:05:18.216Z,17.48
2022-08-31T01:06:20.692Z,17.08
2022-08-31T01:07:22.884Z,14.05
2022-08-31T01:08:30.533Z,15.48
2022-08-31T01:09:36.328Z,11.85
2022-08-31T01:10:41.457Z,17.63
2022-08-31T01:11:43.367Z,16.13
2022-08-31T01:12:46.975Z,15.38
2022-08-31T01:13:49.373Z,14.30
2022-08-31T01:14:51.059Z,13.77
2022-08-31T01:15:58.408Z,13.30
2022-08-31T01:17:00.723Z,16.25
2022-08-31T01:18:06.255Z,14.93
2022-08-31T01:19:17.293Z,14.95
2022-08-31T01:20:32.397Z,14.60
2022-08-31T01:21:46.777Z,16.95
2022-08-31T01:22:57.207Z,19.17
2022-08-31T01:24:02.034Z,15.68
2022-08-31T01:25:04.294Z,13.82
2022-08-31T01:26:07.175Z,15.75
2022-08-31T01:27:09.174Z,15.77
2022-08-31T01:28:11.476Z,13.43
2022-08-31T01:29:13.056Z,15.57
2022-08-31T01:30:26.440Z,15.23
2022-08-31T01:31:48.312Z,15.32
2022-08-31T01:32:50.459Z,14.60
2022-08-31T01:33:52.116Z,15.77
2022-08-31T01:34:53.672Z,12.88
2022-08-31T01:35:55.590Z,13.27
2022-08-31T01:36:57.425Z,15.43
2022-08-31T01:37:59.023Z,14.57
2022-08-31T01:39:02.378Z,17.42
2022-08-31T01:40:04.268Z,14.73
2022-08-31T01:41:06.674Z,15.05
2022-08-31T01:42:08.468Z,14.40
2022-08-31T01:43:10.138Z,16.23
2022-08-31T01:44:13.913Z,15.75
2022-08-31T01:45:15.685Z,13.52
2022-08-31T01:46:17.476Z,14.52
2022-08-31T01:47:19.103Z,15.93
2022-08-31T01:48:23.495Z,13.13
2022-08-31T01:49:25.464Z,15.35
2022-08-31T01:50:27.464Z,16.05
2022-08-31T01:51:29.164Z,13.75
2022-08-31T01:52:30.785Z,14.68
2022-08-31T01:53:33.332Z,13.23
2022-08-31T01:54:34.996Z,15.55
2022-08-31T01:55:36.773Z,13.38
2022-08-31T01:56:42.174Z,16.00
2022-08-31T01:57:43.761Z,14.32
2022-08-31T01:58:45.495Z,15.98
2022-08-31T01:59:47.087Z,13.93
2022-08-31T02:00:48.737Z,15.20
2022-08-31T02:01:54.362Z,13.52
2022-08-31T02:03:00.862Z,15.10
2022-08-31T02:04:04.903Z,13.10
2022-08-31T02:05:06.678Z,16.08
2022-08-31T02:06:13.646Z,15.80
2022-08-31T02:07:15.352Z,15.48
2022-08-31T02:08:16.948Z,13.98
2022-08-31T02:09:19.899Z,13.32
2022-08-31T02:10:21.704Z,15.07
2022-08-31T02:11:23.306Z,13.25
2022-08-31T02:12:24.945Z,13.82
2022-08-31T02:13:26.551Z,15.82
2022-08-31T02:14:28.171Z,16.10
2022-08-31T02:15:31.010Z,15.88
2022-08-31T02:16:32.852Z,13.00
2022-08-31T02:17:34.478Z,15.23
2022-08-31T02:18:36.771Z,14.07
2022-08-31T02:19:38.328Z,14.85
2022-08-31T02:20:39.983Z,14.82
2022-08-31T02:21:41.914Z,15.07
2022-08-31T02:22:44.467Z,14.00
2022-08-31T02:23:46.155Z,13.52
2022-08-31T02:24:47.755Z,15.52
2022-08-31T02:25:49.660Z,19.55
2022-08-31T02:26:53.882Z,15.73
2022-08-31T02:27:55.885Z,17.77
2022-08-31T02:28:57.633Z,14.52
2022-08-31T02:29:59.198Z,16.25
2022-08-31T02:31:00.896Z,16.40
2022-08-31T02:32:02.808Z,17.10
2022-08-31T02:33:04.785Z,15.45
2022-08-31T02:34:06.357Z,15.35
2022-08-31T02:35:08.586Z,14.43
2022-08-31T02:36:10.376Z,21.67
2022-08-31T02:37:13.228Z,15.95
2022-08-31T02:38:14.951Z,14.73
2022-08-31T02:39:16.671Z,14.98
2022-08-31T02:40:18.551Z,15.57
2022-08-31T02:41:20.157Z,15.10
2022-08-31T02:42:21.839Z,14.57
2022-08-31T02:43:24.879Z,15.82
2022-08-31T02:44:26.904Z,18.10
2022-08-31T02:45:28.472Z,16.25
2022-08-31T02:46:30.125Z,17.30
2022-08-31T02:47:31.915Z,19.20
2022-08-31T02:48:34.699Z,19.30
2022-08-31T02:49:36.286Z,19.25
2022-08-31T02:50:44.031Z,17.60
2022-08-31T02:51:45.638Z,17.02
2022-08-31T02:52:47.947Z,19.02
2022-08-31T02:53:50.833Z,17.10
2022-08-31T02:54:52.472Z,16.10
2022-08-31T02:55:54.012Z,16.65
2022-08-31T02:56:55.595Z,16.83
2022-08-31T02:57:57.156Z,17.77
2022-08-31T02:58:59.175Z,16.58
2022-08-31T03:00:00.747Z,16.98
2022-08-31T03:01:04.018Z,16.75
2022-08-31T03:02:05.720Z,16.75
2022-08-31T03:03:07.422Z,15.82
2022-08-31T03:04:09.328Z,15.68
2022-08-31T03:05:11.155Z,17.80
2022-08-31T03:06:12.801Z,19.98
2022-08-31T03:07:14.445Z,16.48
2022-08-31T03:08:16.204Z,20.83
2022-08-31T03:09:17.791Z,15.05
2022-08-31T03:10:21.425Z,15.43
2022-08-31T03:11:23.028Z,16.60
2022-08-31T03:12:24.646Z,15.38
2022-08-31T03:13:26.391Z,17.08
2022-08-31T03:14:28.025Z,15.50
2022-08-31T03:15:30.333Z,17.40
2022-08-31T03:16:32.748Z,15.40
2022-08-31T03:17:34.614Z,20.00
2022-08-31T03:18:36.261Z,15.55
2022-08-31T03:19:37.868Z,14.63
2022-08-31T03:20:39.493Z,14.43
2022-08-31T03:21:41.184Z,14.57
2022-08-31T03:22:45.512Z,14.98
2022-08-31T03:23:47.544Z,16.35
2022-08-31T03:24:49.084Z,17.17
2022-08-31T03:25:50.678Z,16.55
2022-08-31T03:26:52.248Z,18.10
2022-08-31T03:27:53.896Z,14.02
2022-08-31T03:28:55.977Z,14.00
2022-08-31T03:29:58.148Z,14.38
2022-08-31T03:30:59.791Z,18.42
2022-08-31T03:32:01.815Z,15.85
2022-08-31T03:33:03.500Z,23.58
2022-08-31T03:34:05.350Z,34.58
2022-08-31T03:35:07.919Z,32.67
2022-08-31T03:36:09.496Z,28.55
2022-08-31T03:37:11.106Z,25.67
2022-08-31T03:38:14.037Z,22.05
2022-08-31T03:39:15.647Z,25.30
2022-08-31T03:40:17.333Z,19.48
2022-08-31T03:41:22.862Z,19.65
2022-08-31T03:42:25.288Z,17.80
2022-08-31T03:43:27.280Z,17.05
2022-08-31T03:44:28.843Z,21.05
2022-08-31T03:45:32.128Z,16.90
2022-08-31T03:46:34.517Z,17.13
2022-08-31T03:47:44.490Z,15.93
2022-08-31T03:48:47.496Z,21.77
2022-08-31T03:49:49.126Z,18.27
2022-08-31T03:50:50.806Z,19.15
2022-08-31T03:51:53.247Z,16.45
2022-08-31T03:52:55.570Z,16.40
2022-08-31T03:53:57.193Z,18.23
2022-08-31T03:54:58.963Z,21.05
2022-08-31T03:56:04.057Z,20.23
2022-08-31T03:57:06.525Z,21.10
2022-08-31T03:58:09.415Z,20.13
2022-08-31T03:59:11.047Z,16.65
2022-08-31T04:00:13.163Z,16.83
2022-08-31T04:01:15.005Z,15.65
2022-08-31T04:02:16.687Z,16.77
2022-08-31T04:03:18.529Z,14.55
2022-08-31T04:04:20.267Z,15.55
2022-08-31T04:05:21.826Z,16.17
2022-08-31T04:06:23.428Z,16.40
2022-08-31T04:07:24.992Z,15.20
2022-08-31T04:08:26.653Z,14.25
2022-08-31T04:09:28.705Z,15.73
2022-08-31T04:10:30.367Z,17.52
2022-08-31T04:11:44.677Z,18.58
2022-08-31T04:12:47.304Z,17.73
2022-08-31T04:13:49.116Z,16.85
2022-08-31T04:14:50.673Z,16.95
2022-08-31T04:15:52.345Z,18.33
2022-08-31T04:16:53.950Z,17.25
2022-08-31T04:17:57.261Z,19.15
2022-08-31T04:18:59.727Z,18.33
2022-08-31T04:20:04.121Z,17.75
2022-08-31T04:21:11.547Z,15.75
2022-08-31T04:22:13.208Z,16.83
2022-08-31T04:23:14.817Z,17.30
2022-08-31T04:24:16.375Z,16.35
2022-08-31T04:25:18.274Z,17.00
2022-08-31T04:26:25.017Z,15.50
2022-08-31T04:27:26.667Z,20.35
2022-08-31T04:28:28.291Z,18.40
2022-08-31T04:29:30.073Z,17.98
2022-08-31T04:30:31.698Z,17.23
2022-08-31T04:31:35.387Z,18.38
2022-08-31T04:32:37.398Z,17.42
2022-08-31T04:33:40.350Z,16.45
2022-08-31T04:34:41.940Z,18.05
2022-08-31T04:35:44.252Z,17.90
2022-08-31T04:36:45.938Z,19.80
2022-08-31T04:37:48.129Z,21.02
2022-08-31T04:38:52.662Z,21.55
2022-08-31T04:39:59.243Z,17.95
2022-08-31T04:41:09.918Z,20.95
2022-08-31T04:42:12.057Z,17.13
2022-08-31T04:43:13.815Z,17.23
2022-08-31T04:44:19.700Z,18.38
2022-08-31T04:45:21.913Z,18.08
2022-08-31T04:46:24.595Z,15.63
2022-08-31T04:47:26.182Z,19.80
2022-08-31T04:48:28.105Z,17.88
2022-08-31T04:49:29.753Z,23.15
2022-08-31T04:50:31.329Z,17.30
2022-08-31T04:51:35.973Z,18.58
2022-08-31T04:52:37.987Z,20.63
2022-08-31T04:53:40.443Z,21.70
2022-08-31T04:54:42.010Z,18.98
2022-08-31T04:55:44.079Z,20.48
2022-08-31T04:56:45.948Z,19.98
2022-08-31T04:57:47.558Z,16.20
2022-08-31T04:58:55.377Z,18.17
2022-08-31T04:59:57.576Z,15.57
2022-08-31T05:00:59.212Z,16.45
2022-08-31T05:02:00.945Z,26.17
2022-08-31T05:03:02.707Z,28.83
2022-08-31T05:04:05.704Z,26.70
2022-08-31T05:05:07.546Z,24.30
2022-08-31T05:06:14.319Z,22.35
2022-08-31T05:07:15.899Z,20.13
2022-08-31T05:08:17.496Z,18.73
2022-08-31T05:09:22.672Z,18.23
2022-08-31T05:10:24.761Z,18.45
2022-08-31T05:11:27.918Z,17.23
2022-08-31T05:12:30.895Z,16.92
2022-08-31T05:13:32.471Z,17.73
2022-08-31T05:14:35.827Z,20.00
2022-08-31T05:15:43.715Z,20.10
2022-08-31T05:16:45.932Z,15.63
2022-08-31T05:17:47.511Z,22.73
2022-08-31T05:18:51.029Z,16.35
2022-08-31T05:19:52.886Z,15.60
2022-08-31T05:20:54.466Z,18.40
2022-08-31T05:21:56.185Z,15.15
2022-08-31T05:22:57.796Z,15.98
2022-08-31T05:24:03.753Z,16.75
2022-08-31T05:25:07.060Z,15.32
2022-08-31T05:26:09.217Z,18.13
2022-08-31T05:27:10.787Z,19.30
2022-08-31T05:28:12.353Z,14.38
2022-08-31T05:29:15.121Z,15.07
2022-08-31T05:30:16.917Z,16.05
2022-08-31T05:31:19.122Z,14.30
2022-08-31T05:32:20.683Z,16.10
2022-08-31T05:33:22.281Z,16.80
2022-08-31T05:34:24.024Z,15.18
2022-08-31T05:35:25.561Z,17.05
2022-08-31T05:36:27.271Z,17.52
2022-08-31T05:37:28.824Z,16.48
2022-08-31T05:38:30.568Z,18.33
2022-08-31T05:39:33.301Z,15.85
2022-08-31T05:40:34.948Z,14.93
2022-08-31T05:41:36.569Z,15.48
2022-08-31T05:42:38.137Z,16.80
2022-08-31T05:43:40.809Z,19.75
2022-08-31T05:44:42.907Z,15.05
2022-08-31T05:45:44.623Z,13.43
2022-08-31T05:46:54.639Z,17.98
2022-08-31T05:47:59.145Z,18.33
2022-08-31T05:49:00.876Z,14.07
2022-08-31T05:50:02.622Z,16.40
2022-08-31T05:51:12.973Z,14.07
2022-08-31T05:52:14.716Z,20.67
2022-08-31T05:53:16.557Z,17.55
2022-08-31T05:54:19.680Z,16.40
2022-08-31T05:55:21.259Z,21.52
2022-08-31T05:56:27.456Z,17.05
2022-08-31T05:57:29.941Z,17.85
2022-08-31T05:58:34.517Z,18.65
2022-08-31T05:59:39.236Z,16.80
2022-08-31T06:00:40.841Z,14.10
2022-08-31T06:01:42.725Z,14.65
2022-08-31T06:02:44.379Z,16.90
2022-08-31T06:03:46.778Z,16.52
2022-08-31T06:04:48.586Z,18.25
2022-08-31T06:05:53.668Z,16.00
2022-08-31T06:06:55.558Z,18.60
2022-08-31T06:07:57.177Z,16.20
2022-08-31T06:08:59.100Z,18.38
2022-08-31T06:10:01.410Z,14.57
2022-08-31T06:11:04.263Z,16.17
2022-08-31T06:12:06.138Z,15.68
2022-08-31T06:13:08.333Z,15.32
2022-08-31T06:14:11.014Z,18.10
2022-08-31T06:15:13.337Z,14.88
2022-08-31T06:16:15.173Z,15.20
2022-08-31T06:17:17.443Z,14.80
2022-08-31T06:18:20.978Z,13.32
2022-08-31T06:19:22.572Z,14.48
2022-08-31T06:20:24.119Z,13.88
2022-08-31T06:21:36.019Z,16.20
2022-08-31T06:22:38.537Z,16.77
2022-08-31T06:23:42.688Z,18.25
2022-08-31T06:24:44.245Z,16.30
2022-08-31T06:25:45.800Z,13.75
2022-08-31T06:26:58.508Z,15.32
2022-08-31T06:28:01.719Z,13.27
2022-08-31T06:29:06.396Z,14.70
2022-08-31T06:30:08.600Z,15.73
2022-08-31T06:31:35.900Z,14.93
2022-08-31T06:32:37.585Z,14.52
2022-08-31T06:33:39.931Z,14.65
2022-08-31T06:34:42.792Z,13.50
2022-08-31T06:35:45.131Z,15.45
2022-08-31T06:36:48.266Z,15.85
2022-08-31T06:37:50.027Z,14.70
2022-08-31T06:38:52.901Z,15.10
2022-08-31T06:39:54.554Z,17.08
2022-08-31T06:40:56.142Z,16.65
2022-08-31T06:41:57.710Z,16.17
2022-08-31T06:42:59.474Z,15.18
2022-08-31T06:44:02.067Z,17.08
2022-08-31T06:45:05.839Z,15.48
2022-08-31T06:46:08.012Z,12.52
2022-08-31T06:47:09.622Z,12.48
2022-08-31T06:48:11.333Z,16.95
2022-08-31T06:49:12.988Z,15.85
2022-08-31T06:50:15.892Z,16.73
2022-08-31T06:51:17.724Z,16.13
2022-08-31T06:52:20.336Z,15.18
2022-08-31T06:53:22.226Z,18.33
2022-08-31T06:54:31.080Z,15.45
2022-08-31T06:55:34.754Z,16.90
2022-08-31T06:56:36.847Z,15.07
2022-08-31T06:57:38.444Z,14.00
2022-08-31T06:58:40.405Z,16.52
2022-08-31T06:59:42.035Z,17.73
2022-08-31T07:00:43.668Z,17.58
2022-08-31T07:01:45.353Z,19.30
2022-08-31T07:02:52.958Z,15.45
2022-08-31T07:04:00.737Z,16.80
2022-08-31T07:05:02.310Z,19.92
2022-08-31T07:06:11.325Z,13.77
2022-08-31T07:07:13.180Z,14.30
2022-08-31T07:08:15.216Z,11.13
2022-08-31T07:09:18.224Z,12.18
2022-08-31T07:10:19.874Z,17.15
2022-08-31T07:11:28.099Z,13.75
2022-08-31T07:12:30.779Z,14.13
2022-08-31T07:13:32.616Z,14.90
2022-08-31T07:14:35.733Z,14.38
2022-08-31T07:15:37.504Z,15.68
2022-08-31T07:16:39.814Z,12.75
2022-08-31T07:17:41.399Z,13.85
2022-08-31T07:18:43.616Z,13.82
2022-08-31T07:19:45.272Z,12.80
2022-08-31T07:20:46.852Z,11.73
2022-08-31T07:21:54.799Z,13.75
2022-08-31T07:22:57.271Z,12.48
2022-08-31T07:24:01.081Z,11.82
2022-08-31T07:25:02.747Z,13.48
2022-08-31T07:26:09.974Z,12.13
2022-08-31T07:27:16.566Z,15.07
2022-08-31T07:28:18.166Z,15.38
2022-08-31T07:29:21.475Z,12.52
2022-08-31T07:30:23.299Z,18.40
2022-08-31T07:31:30.367Z,15.95
2022-08-31T07:32:32.124Z,14.57
2022-08-31T07:33:38.333Z,15.60
2022-08-31T07:34:40.922Z,16.40
2022-08-31T07:35:42.548Z,15.18
2022-08-31T07:37:02.765Z,15.63
2022-08-31T07:38:23.491Z,12.98
2022-08-31T07:39:44.901Z,16.83
2022-08-31T07:41:04.892Z,12.77
2022-08-31T07:42:09.856Z,12.63
2022-08-31T07:43:11.897Z,15.30
2022-08-31T07:44:15.109Z,16.55
2022-08-31T07:45:29.381Z,17.98
2022-08-31T07:46:33.785Z,14.68
2022-08-31T07:47:35.433Z,18.83
2022-08-31T07:48:37.035Z,13.40
2022-08-31T07:49:44.491Z,13.10
2022-08-31T07:50:46.803Z,16.90
2022-08-31T07:51:53.369Z,15.15
2022-08-31T07:52:57.647Z,16.15
2022-08-31T07:53:59.283Z,15.30
2022-08-31T07:55:07.817Z,16.17
2022-08-31T07:56:09.418Z,12.30
2022-08-31T07:57:11.061Z,15.38
2022-08-31T07:58:15.429Z,12.02
2022-08-31T07:59:18.697Z,14.00
2022-08-31T08:00:27.438Z,11.15
2022-08-31T08:01:32.697Z,13.23
2022-08-31T08:02:39.856Z,10.70
2022-08-31T08:03:45.125Z,14.05
2022-08-31T08:04:51.044Z,15.68
2022-08-31T08:05:53.488Z,15.27
2022-08-31T08:06:57.033Z,13.70
2022-08-31T08:08:09.399Z,11.77
2022-08-31T08:09:23.901Z,13.23
2022-08-31T08:10:27.654Z,12.10
2022-08-31T08:11:29.282Z,12.68
2022-08-31T08:12:35.304Z,12.40
2022-08-31T08:13:36.971Z,13.15
2022-08-31T08:14:40.199Z,15.63
2022-08-31T08:15:41.806Z,14.75
2022-08-31T08:16:43.425Z,11.52
2022-08-31T08:17:45.103Z,12.88
2022-08-31T08:18:46.829Z,14.77
2022-08-31T08:19:48.468Z,12.15
2022-08-31T08:20:52.776Z,17.10
2022-08-31T08:21:55.645Z,14.07
2022-08-31T08:22:57.833Z,13.57
2022-08-31T08:24:00.057Z,18.05
2022-08-31T08:25:02.335Z,15.30
2022-08-31T08:26:09.618Z,11.80
2022-08-31T08:27:22.649Z,15.10
2022-08-31T08:28:39.286Z,13.95
2022-08-31T08:29:42.591Z,13.20
2022-08-31T08:30:45.153Z,17.83
2022-08-31T08:31:53.058Z,17.00
2022-08-31T08:32:54.697Z,13.70
2022-08-31T08:33:57.221Z,15.10
2022-08-31T08:34:58.941Z,14.13
2022-08-31T08:36:03.425Z,13.45
2022-08-31T08:37:07.737Z,14.20
2022-08-31T08:38:09.425Z,13.65
2022-08-31T08:39:13.048Z,13.70
2022-08-31T08:40:41.988Z,14.27
2022-08-31T08:41:45.585Z,14.25
2022-08-31T08:42:47.162Z,13.40
2022-08-31T08:44:00.812Z,11.15
2022-08-31T08:45:02.458Z,12.25
2022-08-31T08:46:20.040Z,11.13
2022-08-31T08:47:38.404Z,16.65
2022-08-31T08:48:43.730Z,14.93
2022-08-31T08:49:49.853Z,11.20
2022-08-31T08:50:55.206Z,12.00
2022-08-31T08:52:04.222Z,12.02
2022-08-31T08:53:08.718Z,12.63
2022-08-31T08:54:14.591Z,16.48
2022-08-31T08:55:26.707Z,12.70
2022-08-31T08:56:33.804Z,13.68
2022-08-31T08:57:41.355Z,12.52
2022-08-31T08:58:43.724Z,14.35
2022-08-31T08:59:47.030Z,14.52
2022-08-31T09:00:53.415Z,14.63
2022-08-31T09:02:02.161Z,12.65
2022-08-31T09:03:12.499Z,17.52
2022-08-31T09:04:52.027Z,14.18
2022-08-31T09:06:10.712Z,16.65
2022-08-31T09:07:21.028Z,15.18
2022-08-31T09:08:37.638Z,13.00
2022-08-31T09:09:49.293Z,14.02
2022-08-31T09:11:17.579Z,15.25
2022-08-31T09:12:36.194Z,14.10
2022-08-31T09:13:49.134Z,14.30
2022-08-31T09:15:08.662Z,15.45
2022-08-31T09:16:22.461Z,12.50
2022-08-31T09:17:35.341Z,14.02
2022-08-31T09:19:06.533Z,13.85
2022-08-31T09:20:12.673Z,13.18
2022-08-31T09:21:26.071Z,12.75
2022-08-31T09:22:29.227Z,12.05
2022-08-31T09:23:37.399Z,11.90
2022-08-31T09:24:38.990Z,15.20
2022-08-31T09:25:52.192Z,11.88
2022-08-31T09:27:17.805Z,14.20
2022-08-31T09:28:38.912Z,17.33
2022-08-31T09:29:44.972Z,14.63
2022-08-31T09:30:52.614Z,13.13
2022-08-31T09:32:07.009Z,10.63
2022-08-31T09:33:18.347Z,14.35
2022-08-31T09:34:31.248Z,10.90
2022-08-31T09:35:41.396Z,11.55
2022-08-31T09:36:43.043Z,13.50
2022-08-31T09:37:58.620Z,14.55
2022-08-31T09:39:22.812Z,16.38
2022-08-31T09:40:53.158Z,10.98
2022-08-31T09:42:03.394Z,12.60
2022-08-31T09:43:22.769Z,11.23
2022-08-31T09:44:33.959Z,13.75
2022-08-31T09:45:41.895Z,14.18
2022-08-31T09:46:49.565Z,12.68
2022-08-31T09:47:52.866Z,10.75
2022-08-31T09:48:58.236Z,13.93
2022-08-31T09:50:03.082Z,12.98
2022-08-31T09:51:06.521Z,13.55
2022-08-31T09:52:47.543Z,11.73
2022-08-31T09:54:07.939Z,15.98
2022-08-31T09:55:14.369Z,10.73
2022-08-31T09:56:22.198Z,12.20
2022-08-31T09:57:43.281Z,11.45
2022-08-31T09:58:51.296Z,13.65
2022-08-31T09:59:53.780Z,12.15
2022-08-31T10:00:55.513Z,12.40
2022-08-31T10:02:01.298Z,12.38
2022-08-31T10:03:30.441Z,14.15
2022-08-31T10:04:36.711Z,13.98
2022-08-31T10:05:41.762Z,11.75
2022-08-31T10:06:59.181Z,12.77
2022-08-31T10:08:08.110Z,11.80
2022-08-31T10:09:16.984Z,15.68
2022-08-31T10:10:30.032Z,11.43
2022-08-31T10:11:35.309Z,10.52
2022-08-31T10:12:36.842Z,13.57
2022-08-31T10:13:42.187Z,11.68
2022-08-31T10:15:07.520Z,11.10
2022-08-31T10:16:37.811Z,11.55
2022-08-31T10:17:47.750Z,12.52
2022-08-31T10:19:20.297Z,11.48
2022-08-31T10:20:30.784Z,13.38
2022-08-31T10:21:52.191Z,11.10
2022-08-31T10:23:08.776Z,13.23
2022-08-31T10:24:33.877Z,12.95
2022-08-31T10:25:46.767Z,11.50
2022-08-31T10:27:02.843Z,12.48
2022-08-31T10:28:15.404Z,11.32
2022-08-31T10:29:41.505Z,15.32
2022-08-31T10:31:03.369Z,15.70
2022-08-31T10:32:16.534Z,13.10
2022-08-31T10:33:21.966Z,14.93
2022-08-31T10:34:46.790Z,15.48
2022-08-31T10:36:00.339Z,12.43
2022-08-31T10:37:17.464Z,11.55
2022-08-31T10:38:26.256Z,14.43
2022-08-31T10:39:50.485Z,16.08
2022-08-31T10:41:01.541Z,12.25
2022-08-31T10:42:10.618Z,11.90
2022-08-31T10:43:31.966Z,18.20
2022-08-31T10:44:52.380Z,16.50
2022-08-31T10:45:54.227Z,13.07
2022-08-31T10:47:02.813Z,15.50
2022-08-31T10:48:05.085Z,16.27
2022-08-31T10:49:07.399Z,15.82
2022-08-31T10:50:13.921Z,14.90
2022-08-31T10:51:19.481Z,16.33
2022-08-31T10:53:02.648Z,13.77
2022-08-31T10:54:28.344Z,15.25
2022-08-31T10:55:33.567Z,17.42
2022-08-31T10:56:59.252Z,14.27
2022-08-31T10:58:16.369Z,16.02
2022-08-31T10:59:25.904Z,11.93
2022-08-31T11:00:41.889Z,15.55
2022-08-31T11:01:48.274Z,13.23
2022-08-31T11:03:31.641Z,14.38
2022-08-31T11:04:46.102Z,14.23
2022-08-31T11:05:59.949Z,17.20
2022-08-31T11:07:16.799Z,14.82
2022-08-31T11:08:45.358Z,17.75
2022-08-31T11:09:55.018Z,14.10
2022-08-31T11:10:59.247Z,13.27
2022-08-31T11:12:07.215Z,18.02
2022-08-31T11:13:38.477Z,13.95
2022-08-31T11:15:28.923Z,17.13
2022-08-31T11:16:50.376Z,14.68
2022-08-31T11:17:55.529Z,15.25
2022-08-31T11:18:57.024Z,15.23
2022-08-31T11:20:10.670Z,17.45
2022-08-31T11:21:35.328Z,16.75
2022-08-31T11:22:46.237Z,16.88
2022-08-31T11:24:21.967Z,17.20
2022-08-31T11:25:58.377Z,14.77
2022-08-31T11:27:40.079Z,14.80
2022-08-31T11:28:55.760Z,15.00
2022-08-31T11:30:29.196Z,18.17
2022-08-31T11:31:34.552Z,17.73
2022-08-31T11:32:45.927Z,13.68
2022-08-31T11:34:12.207Z,9.65
2022-08-31T11:35:15.545Z,11.38
2022-08-31T11:36:48.101Z,11.45
2022-08-31T11:37:55.767Z,12.02
2022-08-31T11:39:03.612Z,12.68
2022-08-31T11:40:10.690Z,16.40
2022-08-31T11:41:32.188Z,13.43
2022-08-31T11:42:39.886Z,13.45
2022-08-31T11:43:45.986Z,12.52
2022-08-31T11:45:27.907Z,11.32
2022-08-31T11:46:29.460Z,15.45
2022-08-31T11:47:37.309Z,13.60
2022-08-31T11:48:54.530Z,13.55
2022-08-31T11:50:05.597Z,13.80
2022-08-31T11:51:07.595Z,14.55
2022-08-31T11:52:21.137Z,13.43
2022-08-31T11:53:29.369Z,15.15
2022-08-31T11:54:41.836Z,13.35
2022-08-31T11:55:49.961Z,13.07
2022-08-31T11:56:56.266Z,15.50
2022-08-31T11:58:06.404Z,15.32
2022-08-31T11:59:26.182Z,10.98
2022-08-31T12:00:52.770Z,13.85
2022-08-31T12:01:57.274Z,12.75
2022-08-31T12:03:06.231Z,11.65
2022-08-31T12:04:43.583Z,11.45
2022-08-31T12:05:50.967Z,12.93
2022-08-31T12:06:52.990Z,12.82
2022-08-31T12:07:55.142Z,14.93
2022-08-31T12:09:34.135Z,19.00
2022-08-31T12:11:01.220Z,11.73
2022-08-31T12:12:33.724Z,14.25
2022-08-31T12:13:49.698Z,16.15
2022-08-31T12:15:12.749Z,18.38
2022-08-31T12:16:30.085Z,17.17
2022-08-31T12:17:36.979Z,18.10
2022-08-31T12:18:59.756Z,18.27
2022-08-31T12:20:07.486Z,13.35
2022-08-31T12:21:46.329Z,15.30
2022-08-31T12:23:37.319Z,19.02
2022-08-31T12:24:57.329Z,17.17
2022-08-31T12:26:01.760Z,14.10
2022-08-31T12:27:35.549Z,14.05
2022-08-31T12:29:14.166Z,14.40
2022-08-31T12:30:25.936Z,16.90
2022-08-31T12:31:27.554Z,16.77
2022-08-31T12:32:36.251Z,16.42
2022-08-31T12:33:44.258Z,15.80
2022-08-31T12:35:07.198Z,15.40
2022-08-31T12:36:18.082Z,16.65
2022-08-31T12:37:28.954Z,14.50
2022-08-31T12:38:30.771Z,16.77
2022-08-31T12:39:32.667Z,14.93
2022-08-31T12:40:42.070Z,13.38
2022-08-31T12:42:04.735Z,13.95
2022-08-31T12:43:24.266Z,15.57
2022-08-31T12:44:33.545Z,14.55
2022-08-31T12:45:57.752Z,14.43
2022-08-31T12:47:02.256Z,14.88
2022-08-31T12:48:20.586Z,15.52
2022-08-31T12:49:32.028Z,17.10
2022-08-31T12:50:45.292Z,15.95
2022-08-31T12:51:53.291Z,16.42
2022-08-31T12:53:15.518Z,14.60
2022-08-31T12:54:38.872Z,15.25
2022-08-31T12:55:52.474Z,15.63
2022-08-31T12:57:26.898Z,21.75
2022-08-31T12:59:02.595Z,18.15
2022-08-31T13:00:15.945Z,18.65
2022-08-31T13:01:22.109Z,13.70
2022-08-31T13:02:24.394Z,17.90
2022-08-31T13:03:31.158Z,16.92
2022-08-31T13:04:32.980Z,14.52
2022-08-31T13:05:38.129Z,17.05
2022-08-31T13:06:41.932Z,19.23
2022-08-31T13:07:43.530Z,18.35
2022-08-31T13:08:54.285Z,15.57
2022-08-31T13:10:15.020Z,22.02
2022-08-31T13:11:34.908Z,17.38
2022-08-31T13:12:54.271Z,20.08
2022-08-31T13:14:14.250Z,15.88
2022-08-31T13:15:29.181Z,17.00
2022-08-31T13:16:32.080Z,16.08
2022-08-31T13:17:39.729Z,17.38
2022-08-31T13:18:41.589Z,14.98
2022-08-31T13:19:50.527Z,20.50
2022-08-31T13:20:57.012Z,14.50
2022-08-31T13:22:06.917Z,12.85
2022-08-31T13:23:11.421Z,15.38
2022-08-31T13:24:13.779Z,18.30
2022-08-31T13:25:37.195Z,18.45
2022-08-31T13:26:38.977Z,26.15
2022-08-31T13:27:48.225Z,20.25
2022-08-31T13:28:56.427Z,24.83
2022-08-31T13:30:12.787Z,23.17
2022-08-31T13:31:21.837Z,15.18
2022-08-31T13:32:32.978Z,16.65
2022-08-31T13:33:42.954Z,15.25
2022-08-31T13:34:45.988Z,15.05
2022-08-31T13:35:50.743Z,12.43
2022-08-31T13:36:58.422Z,16.90
2022-08-31T13:38:05.494Z,15.45
2022-08-31T13:39:22.311Z,15.63
2022-08-31T13:40:25.576Z,13.93
2022-08-31T13:41:31.212Z,14.55
2022-08-31T13:42:41.252Z,12.95
2022-08-31T13:43:53.622Z,13.82
2022-08-31T13:45:00.951Z,13.07
2022-08-31T13:46:04.483Z,15.60
2022-08-31T13:47:30.918Z,17.25
2022-08-31T13:48:40.606Z,14.50
2022-08-31T13:49:44.295Z,11.57
2022-08-31T13:50:53.123Z,13.63
2022-08-31T13:51:55.389Z,12.55
2022-08-31T13:53:25.354Z,13.32
2022-08-31T13:54:31.424Z,12.25
2022-08-31T13:55:39.685Z,13.88
2022-08-31T13:56:56.270Z,12.90
2022-08-31T13:58:00.888Z,11.88
2022-08-31T13:59:17.040Z,13.32
2022-08-31T14:00:38.432Z,12.40
2022-08-31T14:01:45.572Z,14.23
2022-08-31T14:02:47.290Z,14.15
2022-08-31T14:03:53.049Z,11.35
2022-08-31T14:04:59.533Z,12.82
2022-08-31T14:06:37.972Z,12.82
2022-08-31T14:07:40.941Z,12.55
2022-08-31T14:08:48.452Z,12.38
2022-08-31T14:10:14.152Z,13.50
2022-08-31T14:11:17.796Z,13.63
2022-08-31T14:12:45.964Z,13.80
2022-08-31T14:13:50.047Z,11.13
2022-08-31T14:14:51.859Z,13.43
2022-08-31T14:15:56.546Z,13.50
2022-08-31T14:17:01.345Z,14.90
2022-08-31T14:18:26.094Z,10.18
2022-08-31T14:19:38.766Z,9.95
2022-08-31T14:21:03.951Z,13.45
2022-08-31T14:22:27.269Z,16.73
2022-08-31T14:23:31.845Z,15.82
2022-08-31T14:24:33.416Z,14.63
2022-08-31T14:25:35.024Z,15.57